Wilson Algeciras — 9HA2471 — position and weather

sailwx.info

Track history (hours):
 
Tides and Currents Weather Stations Pressure Air Temp Water Temp Dewpoint Dewpoint Depression Visibility Wind Speed Wind Dir Waves Ship Positions

Wilson Algeciras

Last reported at 2016-Jul-25 20:33 UTC. Time now 2016-Jul-27 13:33 UTC.
Position N 63°29' E 009°01'.

Length 88 m; draft 3 m.

Type: Ship. MMSI: 248689000.

Date/timePositionNaut miles runAvg speedWind from/ knotsBaromVisibWave heightAir tempDewpointWater temp
2016-Jul-25 20:33N 63°29' E 009°01'1310.0
2016-Jul-25 19:18N 63°35' E 009°26'810.7
2016-Jul-25 18:33N 63°39' E 009°42'10 9.9
2016-Jul-25 17:34N 63°31' E 009°53'1010.3
2016-Jul-25 16:33N 63°28' E 010°16'5 4.5
2016-Jul-25 15:33N 63°27' E 010°25'0 0.0
2016-Jul-25 14:33N 63°27' E 010°25'0 0.0
2016-Jul-25 13:33N 63°27' E 010°25'0 0.0
2016-Jul-25 12:33N 63°27' E 010°25'0 0.0
2016-Jul-25 11:33N 63°27' E 010°25'0 0.0
2016-Jul-25 10:33N 63°27' E 010°25'0 0.0
2016-Jul-25 09:33N 63°27' E 010°25'0 0.0
2016-Jul-25 08:33N 63°27' E 010°25'0 0.0
2016-Jul-25 07:33N 63°27' E 010°25'0 0.0
2016-Jul-25 06:33N 63°27' E 010°25'0 0.0
2016-Jul-25 05:33N 63°27' E 010°25'0 0.0
2016-Jul-25 04:33N 63°27' E 010°25'0 0.0
2016-Jul-25 03:33N 63°27' E 010°25'0 0.0
2016-Jul-25 02:33N 63°27' E 010°25'0 0.0
2016-Jul-25 01:33N 63°27' E 010°25'0 0.0
2016-Jul-25 00:33N 63°27' E 010°25'0 0.0
2016-Jul-24 23:33N 63°27' E 010°25'0 0.0
2016-Jul-24 22:33N 63°27' E 010°25'0 0.0
2016-Jul-24 21:34N 63°27' E 010°25'0 0.0
2016-Jul-24 20:33N 63°27' E 010°25'0 0.0
2016-Jul-24 19:33N 63°27' E 010°25'0 0.0
2016-Jul-24 18:33N 63°27' E 010°25'0 0.0
2016-Jul-24 17:33N 63°27' E 010°25'0 0.0
2016-Jul-24 16:33N 63°27' E 010°25'0 0.0
2016-Jul-24 15:33N 63°27' E 010°25'0 0.0
2016-Jul-24 14:33N 63°27' E 010°25'0 0.0
2016-Jul-24 13:33N 63°27' E 010°25'0 0.0
2016-Jul-24 12:33N 63°27' E 010°25'0 0.0
2016-Jul-24 11:33N 63°27' E 010°25'0 0.0
2016-Jul-24 10:33N 63°27' E 010°25'0 0.0
2016-Jul-24 09:33N 63°27' E 010°25'0 0.0
2016-Jul-24 08:33N 63°27' E 010°25'0 0.0
2016-Jul-24 07:33N 63°27' E 010°25'0 0.0
2016-Jul-24 06:33N 63°27' E 010°25'0 0.0
2016-Jul-24 05:33N 63°27' E 010°25'0 0.0
2016-Jul-24 04:33N 63°27' E 010°25'0 0.0
2016-Jul-24 03:33N 63°27' E 010°25'0 0.0
2016-Jul-24 02:33N 63°27' E 010°25'0 0.0
2016-Jul-24 01:33N 63°27' E 010°25'0 0.0
2016-Jul-24 00:33N 63°27' E 010°25'0 0.0
2016-Jul-23 23:33N 63°27' E 010°25'0 0.0
2016-Jul-23 22:33N 63°27' E 010°25'0 0.0
2016-Jul-23 21:33N 63°27' E 010°25'0 0.1
2016-Jul-23 20:34N 63°27' E 010°25'8 8.5
2016-Jul-23 19:33N 63°28' E 010°07'9 8.9
2016-Jul-23 18:33N 63°34' E 009°51'7 7.5
2016-Jul-23 17:34N 63°38' E 009°37'12 9.7
2016-Jul-23 16:19N 63°32' E 009°14'  
2016-Jul-19 14:33N 59°15' W 003°25'9 9.0
2016-Jul-19 13:33N 59°10' W 003°39'9 9.4
2016-Jul-19 12:33N 59°05' W 003°54'9 9.2
2016-Jul-19 11:33N 58°59' W 004°09'10 9.5
2016-Jul-19 10:33N 58°54' W 004°24'1010.0
2016-Jul-19 09:33N 58°48' W 004°40'188 8.7
2016-Jul-18 12:04N 55°55' W 006°53'5 9.0
2016-Jul-18 11:33N 55°51' W 006°49'9 9.0
2016-Jul-18 10:33N 55°43' W 006°42'9 8.9
2016-Jul-18 09:34N 55°36' W 006°32'8 8.4
2016-Jul-18 08:34N 55°30' W 006°21'7 7.3
2016-Jul-18 07:34N 55°26' W 006°10'7 6.7
2016-Jul-18 06:34N 55°23' W 006°00'7 6.9
2016-Jul-18 05:33N 55°17' W 005°53'8 8.3
2016-Jul-18 04:33N 55°09' W 005°47'10 9.9
2016-Jul-18 03:30N 55°00' W 005°39'1010.4
2016-Jul-18 02:33N 54°51' W 005°33'1111.0
2016-Jul-18 01:33N 54°41' W 005°24'1110.9
2016-Jul-18 00:33N 54°31' W 005°16'1010.1
2016-Jul-17 23:33N 54°21' W 005°17'1010.0
2016-Jul-17 22:33N 54°11' W 005°19'10 9.8
2016-Jul-17 21:33N 54°02' W 005°21'195 9.6
2016-Jul-17 01:17N 50°52' W 006°34'7 9.8
2016-Jul-17 00:33N 50°45' W 006°37'13 9.6
2016-Jul-16 23:10N 50°32' W 006°43'7 9.6
2016-Jul-16 22:25N 50°25' W 006°46'8 9.5
2016-Jul-16 21:33N 50°17' W 006°50'9 9.2
2016-Jul-16 20:34N 50°09' W 006°54'9 8.7
2016-Jul-16 19:34N 50°00' W 006°58'9 8.6
2016-Jul-16 18:34N 49°52' W 007°01'9 8.8
2016-Jul-16 17:34N 49°43' W 007°04'9 9.0
2016-Jul-16 16:34N 49°35' W 007°08'9 9.1
2016-Jul-16 15:33N 49°26' W 007°11'107 9.7
2016-Jul-16 04:33N 47°43' W 007°56'9 9.4
2016-Jul-16 03:34N 47°34' W 007°60'9 9.4
2016-Jul-16 02:33N 47°25' W 008°03'10 9.7
2016-Jul-16 01:33N 47°16' W 008°07'9 9.4
2016-Jul-16 00:34N 47°06' W 008°10'10 9.5
2016-Jul-15 23:33N 46°57' W 008°12'  
Track history (hours):
 
Tides and Currents Weather Stations Pressure Air Temp Water Temp Dewpoint Dewpoint Depression Visibility Wind Speed Wind Dir Waves Ship Positions

Wilson Algeciras

Last reported at 2016-Jul-25 20:33 UTC. Time now 2016-Jul-27 13:33 UTC.
Position N 63°29' E 009°01'.

Length 88 m; draft 3 m.

Type: Ship. MMSI: 248689000.

Date/timePositionNaut miles runAvg speedWind from/ knotsBaromVisibWave heightAir tempDewpointWater temp
2016-Jul-25 20:33N 63°29' E 009°01'1310.0
2016-Jul-25 19:18N 63°35' E 009°26'810.7
2016-Jul-25 18:33N 63°39' E 009°42'10 9.9
2016-Jul-25 17:34N 63°31' E 009°53'1010.3
2016-Jul-25 16:33N 63°28' E 010°16'5 4.5
2016-Jul-25 15:33N 63°27' E 010°25'0 0.0
2016-Jul-25 14:33N 63°27' E 010°25'0 0.0
2016-Jul-25 13:33N 63°27' E 010°25'0 0.0
2016-Jul-25 12:33N 63°27' E 010°25'0 0.0
2016-Jul-25 11:33N 63°27' E 010°25'0 0.0
2016-Jul-25 10:33N 63°27' E 010°25'0 0.0
2016-Jul-25 09:33N 63°27' E 010°25'0 0.0
2016-Jul-25 08:33N 63°27' E 010°25'0 0.0
2016-Jul-25 07:33N 63°27' E 010°25'0 0.0
2016-Jul-25 06:33N 63°27' E 010°25'0 0.0
2016-Jul-25 05:33N 63°27' E 010°25'0 0.0
2016-Jul-25 04:33N 63°27' E 010°25'0 0.0
2016-Jul-25 03:33N 63°27' E 010°25'0 0.0
2016-Jul-25 02:33N 63°27' E 010°25'0 0.0
2016-Jul-25 01:33N 63°27' E 010°25'0 0.0
2016-Jul-25 00:33N 63°27' E 010°25'0 0.0
2016-Jul-24 23:33N 63°27' E 010°25'0 0.0
2016-Jul-24 22:33N 63°27' E 010°25'0 0.0
2016-Jul-24 21:34N 63°27' E 010°25'0 0.0
2016-Jul-24 20:33N 63°27' E 010°25'0 0.0
2016-Jul-24 19:33N 63°27' E 010°25'0 0.0
2016-Jul-24 18:33N 63°27' E 010°25'0 0.0
2016-Jul-24 17:33N 63°27' E 010°25'0 0.0
2016-Jul-24 16:33N 63°27' E 010°25'0 0.0
2016-Jul-24 15:33N 63°27' E 010°25'0 0.0
2016-Jul-24 14:33N 63°27' E 010°25'0 0.0
2016-Jul-24 13:33N 63°27' E 010°25'0 0.0
2016-Jul-24 12:33N 63°27' E 010°25'0 0.0
2016-Jul-24 11:33N 63°27' E 010°25'0 0.0
2016-Jul-24 10:33N 63°27' E 010°25'0 0.0
2016-Jul-24 09:33N 63°27' E 010°25'0 0.0
2016-Jul-24 08:33N 63°27' E 010°25'0 0.0
2016-Jul-24 07:33N 63°27' E 010°25'0 0.0
2016-Jul-24 06:33N 63°27' E 010°25'0 0.0
2016-Jul-24 05:33N 63°27' E 010°25'0 0.0
2016-Jul-24 04:33N 63°27' E 010°25'0 0.0
2016-Jul-24 03:33N 63°27' E 010°25'0 0.0
2016-Jul-24 02:33N 63°27' E 010°25'0 0.0
2016-Jul-24 01:33N 63°27' E 010°25'0 0.0
2016-Jul-24 00:33N 63°27' E 010°25'0 0.0
2016-Jul-23 23:33N 63°27' E 010°25'0 0.0
2016-Jul-23 22:33N 63°27' E 010°25'0 0.0
2016-Jul-23 21:33N 63°27' E 010°25'0 0.1
2016-Jul-23 20:34N 63°27' E 010°25'8 8.5
2016-Jul-23 19:33N 63°28' E 010°07'9 8.9
2016-Jul-23 18:33N 63°34' E 009°51'7 7.5
2016-Jul-23 17:34N 63°38' E 009°37'12 9.7
2016-Jul-23 16:19N 63°32' E 009°14'  
2016-Jul-19 14:33N 59°15' W 003°25'9 9.0
2016-Jul-19 13:33N 59°10' W 003°39'9 9.4
2016-Jul-19 12:33N 59°05' W 003°54'9 9.2
2016-Jul-19 11:33N 58°59' W 004°09'10 9.5
2016-Jul-19 10:33N 58°54' W 004°24'1010.0
2016-Jul-19 09:33N 58°48' W 004°40'188 8.7
2016-Jul-18 12:04N 55°55' W 006°53'5 9.0
2016-Jul-18 11:33N 55°51' W 006°49'9 9.0
2016-Jul-18 10:33N 55°43' W 006°42'9 8.9
2016-Jul-18 09:34N 55°36' W 006°32'8 8.4
2016-Jul-18 08:34N 55°30' W 006°21'7 7.3
2016-Jul-18 07:34N 55°26' W 006°10'7 6.7
2016-Jul-18 06:34N 55°23' W 006°00'7 6.9
2016-Jul-18 05:33N 55°17' W 005°53'8 8.3
2016-Jul-18 04:33N 55°09' W 005°47'10 9.9
2016-Jul-18 03:30N 55°00' W 005°39'1010.4
2016-Jul-18 02:33N 54°51' W 005°33'1111.0
2016-Jul-18 01:33N 54°41' W 005°24'1110.9
2016-Jul-18 00:33N 54°31' W 005°16'1010.1
2016-Jul-17 23:33N 54°21' W 005°17'1010.0
2016-Jul-17 22:33N 54°11' W 005°19'10 9.8
2016-Jul-17 21:33N 54°02' W 005°21'195 9.6
2016-Jul-17 01:17N 50°52' W 006°34'7 9.8
2016-Jul-17 00:33N 50°45' W 006°37'13 9.6
2016-Jul-16 23:10N 50°32' W 006°43'7 9.6
2016-Jul-16 22:25N 50°25' W 006°46'8 9.5
2016-Jul-16 21:33N 50°17' W 006°50'9 9.2
2016-Jul-16 20:34N 50°09' W 006°54'9 8.7
2016-Jul-16 19:34N 50°00' W 006°58'9 8.6
2016-Jul-16 18:34N 49°52' W 007°01'9 8.8
2016-Jul-16 17:34N 49°43' W 007°04'9 9.0
2016-Jul-16 16:34N 49°35' W 007°08'9 9.1
2016-Jul-16 15:33N 49°26' W 007°11'107 9.7
2016-Jul-16 04:33N 47°43' W 007°56'9 9.4
2016-Jul-16 03:34N 47°34' W 007°60'9 9.4
2016-Jul-16 02:33N 47°25' W 008°03'10 9.7
2016-Jul-16 01:33N 47°16' W 008°07'9 9.4
2016-Jul-16 00:34N 47°06' W 008°10'10 9.5
2016-Jul-15 23:33N 46°57' W 008°12'  

Dump ship's entire track history